Calhoun, GA (30701)

2:20 PM EST on November 17, 2017 (GMT -0500)
The Villages of Calhoun | | Change Station
Active Advisory: Wind Advisory

Elev 676 ft 34.50 °N, 84.93 °W | Updated 5 minutes ago

Clear
Clear
68.5 °F
Feels Like 68.5 °F
N
1.0
Wind Variable Wind from SW
Gusts 6.0 mph

Today
High -- | Low -- °F
--% Chance of Precip.
Yesterday
High -- | Low -- °F
Precip. -- in
Pressure 30.11 in
Visibility 10.0 miles
Clouds Clear
Dew Point 43 °F
Humidity 39%
Rainfall 0.00 in
Snow Depth Not available.
7:15 AM 5:33 PM
Waning Crescent, 0% visible
METAR KDNN 171915Z AUTO 15006KT 10SM CLR 18/03 A3011 RMK AO2
Pressure 30.11 in
Visibility 10.0 miles
Clouds Clear
Dew Point 43 °F
Humidity 39%
Rainfall 0.00 in
Snow Depth Not available.
7:15 AM 5:33 PM
Waning Crescent, 0% visible
METAR KDNN 171915Z AUTO 15006KT 10SM CLR 18/03 A3011 RMK AO2

Get Your Daily Forecast Email!

Thanks for signing up!

Be on the lookout for a verification email in your inbox.

You'll start receiving severe weather alerts in your inbox..

×

10-Day Weather Forecast

Almanac

Astronomy

Nov. 17, 2017 Rise Set
Actual Time
Civil Twilight
Nautical Twilight
Astronomical Twilight
Moon
Length of Visible Light
Length of Day
Tomorrow will be .
, % of the Moon is Illuminated

Today's Extremes

State Highs State Lows

Community

WunderPhotos

Category 6

Welcome to Category 6. This is the collective home for Weather Underground's featured writeups by Dr. Jeff Masters (right), Bob Henson (left), Chris Burt, and other regular contributors.

Nearby

Air Quality

  Air Quality AQ Index Pollutant
Not available.

Snow Depth

Station Depth Elevation

Earthquake Activity

City Distance Mag. Time & Date
Minimum magnitude displayed is 2.5.

Coastal Water Temperatures

Place Temperature

Stations

Nearby Weather Stations

Station Location Temp. Windchill Dew Point Humidity Wind Precip. Elev Updated Type
                   

Watches & Warnings

Wind Advisory
Issued: 2:06 PM EST Nov. 17, 2017 – National Weather Service

... Wind Advisory in effect from 10 am Saturday to 3 am EST
Sunday...

The National Weather Service in Peachtree City has issued a Wind
Advisory, which is in effect from 10 am Saturday to 3 am EST
Sunday.

* Locations... portions of north Georgia, along and north of a Rome
to Canton to Cleveland line.

* Winds... initially southwest 15 to 20 mph with gusts up to 35
mph, then shifting Saturday evening out of the northwest at 20
to 30 mph with gusts up to 40 mph. Locally higher gusts
possible in the higher elevations.

* Timing... 10 am Saturday until 3 am Sunday.

* Impacts... strong winds will bring down large tree limbs and
some weaker trees. Unsecured outdoor items may be blown around.

Precautionary/preparedness actions...

A Wind Advisory means that sustained wind speeds of at least
20 mph... or gusts to 35 mph or stronger are expected. Winds this
strong can make driving difficult... especially for high profile
vehicles. Use extra caution.